sensor_id;sensor_type;location;lat;lon;timestamp;temperature;humidity
76751;SHT31;65216;51.090;-115.352;2023-06-04T00:02:26;23.16;39.96
76751;SHT31;65216;51.090;-115.352;2023-06-04T00:04:53;23.16;40.05
76751;SHT31;65216;51.090;-115.352;2023-06-04T00:07:20;23.16;40.24
76751;SHT31;65216;51.090;-115.352;2023-06-04T00:09:47;23.16;40.33
76751;SHT31;65216;51.090;-115.352;2023-06-04T00:12:14;23.16;40.38
76751;SHT31;65216;51.090;-115.352;2023-06-04T00:14:46;23.16;40.47
76751;SHT31;65216;51.090;-115.352;2023-06-04T00:17:13;23.16;40.52
76751;SHT31;65216;51.090;-115.352;2023-06-04T00:19:43;23.18;40.64
76751;SHT31;65216;51.090;-115.352;2023-06-04T00:22:13;23.20;40.70
76751;SHT31;65216;51.090;-115.352;2023-06-04T00:24:40;23.23;40.73
76751;SHT31;65216;51.090;-115.352;2023-06-04T00:27:09;23.25;40.84
76751;SHT31;65216;51.090;-115.352;2023-06-04T00:29:37;23.27;41.05
76751;SHT31;65216;51.090;-115.352;2023-06-04T00:32:04;23.30;41.19
76751;SHT31;65216;51.090;-115.352;2023-06-04T00:34:35;23.32;41.31
76751;SHT31;65216;51.090;-115.352;2023-06-04T00:37:35;23.35;41.41
76751;SHT31;65216;51.090;-115.352;2023-06-04T00:40:06;23.38;41.50
76751;SHT31;65216;51.090;-115.352;2023-06-04T00:42:44;23.39;41.58
76751;SHT31;65216;51.090;-115.352;2023-06-04T00:45:15;23.40;41.64
76751;SHT31;65216;51.090;-115.352;2023-06-04T00:47:45;23.43;41.64
76751;SHT31;65216;51.090;-115.352;2023-06-04T00:50:14;23.47;41.60
76751;SHT31;65216;51.090;-115.352;2023-06-04T00:52:44;23.49;41.57
76751;SHT31;65216;51.090;-115.352;2023-06-04T00:55:11;23.50;41.50
76751;SHT31;65216;51.090;-115.352;2023-06-04T00:57:39;23.51;41.47
76751;SHT31;65216;51.090;-115.352;2023-06-04T01:00:06;23.53;41.44
76751;SHT31;65216;51.090;-115.352;2023-06-04T01:02:34;23.53;41.38
76751;SHT31;65216;51.090;-115.352;2023-06-04T01:08:18;23.53;41.28
76751;SHT31;65216;51.090;-115.352;2023-06-04T01:10:51;23.53;41.18
76751;SHT31;65216;51.090;-115.352;2023-06-04T01:13:20;23.54;41.17
76751;SHT31;65216;51.090;-115.352;2023-06-04T01:15:48;23.54;41.12
76751;SHT31;65216;51.090;-115.352;2023-06-04T01:18:16;23.54;41.07
76751;SHT31;65216;51.090;-115.352;2023-06-04T01:21:05;23.55;41.03
76751;SHT31;65216;51.090;-115.352;2023-06-04T01:23:45;23.56;41.01
76751;SHT31;65216;51.090;-115.352;2023-06-04T01:26:27;23.57;40.95
76751;SHT31;65216;51.090;-115.352;2023-06-04T01:28:57;23.56;40.84
76751;SHT31;65216;51.090;-115.352;2023-06-04T01:31:27;23.57;40.79
76751;SHT31;65216;51.090;-115.352;2023-06-04T01:33:58;23.57;40.74
76751;SHT31;65216;51.090;-115.352;2023-06-04T01:36:25;23.57;40.70
76751;SHT31;65216;51.090;-115.352;2023-06-04T01:38:55;23.57;40.63
76751;SHT31;65216;51.090;-115.352;2023-06-04T01:41:26;23.56;40.50
76751;SHT31;65216;51.090;-115.352;2023-06-04T01:43:53;23.56;40.44
76751;SHT31;65216;51.090;-115.352;2023-06-04T01:46:22;23.55;40.39
76751;SHT31;65216;51.090;-115.352;2023-06-04T01:48:49;23.54;40.36
76751;SHT31;65216;51.090;-115.352;2023-06-04T01:51:16;23.55;40.31
76751;SHT31;65216;51.090;-115.352;2023-06-04T01:53:49;23.57;40.22
76751;SHT31;65216;51.090;-115.352;2023-06-04T01:56:16;23.57;40.09
76751;SHT31;65216;51.090;-115.352;2023-06-04T01:58:43;23.56;40.09
76751;SHT31;65216;51.090;-115.352;2023-06-04T02:01:10;23.55;40.01
76751;SHT31;65216;51.090;-115.352;2023-06-04T02:03:37;23.53;39.98
76751;SHT31;65216;51.090;-115.352;2023-06-04T02:06:06;23.53;39.90
76751;SHT31;65216;51.090;-115.352;2023-06-04T02:08:34;23.51;39.81
76751;SHT31;65216;51.090;-115.352;2023-06-04T02:11:01;23.50;39.82
76751;SHT31;65216;51.090;-115.352;2023-06-04T02:13:28;23.48;39.83
76751;SHT31;65216;51.090;-115.352;2023-06-04T02:16:00;23.47;39.80
76751;SHT31;65216;51.090;-115.352;2023-06-04T02:18:27;23.47;39.77
76751;SHT31;65216;51.090;-115.352;2023-06-04T02:20:56;23.45;39.68
76751;SHT31;65216;51.090;-115.352;2023-06-04T02:23:24;23.43;39.75
76751;SHT31;65216;51.090;-115.352;2023-06-04T02:25:57;23.42;39.61
76751;SHT31;65216;51.090;-115.352;2023-06-04T02:28:27;23.41;39.59
76751;SHT31;65216;51.090;-115.352;2023-06-04T02:30:57;23.40;39.59
76751;SHT31;65216;51.090;-115.352;2023-06-04T02:33:23;23.39;39.43
76751;SHT31;65216;51.090;-115.352;2023-06-04T02:35:50;23.36;39.32
76751;SHT31;65216;51.090;-115.352;2023-06-04T02:38:18;23.35;39.30
76751;SHT31;65216;51.090;-115.352;2023-06-04T02:40:45;23.32;39.31
76751;SHT31;65216;51.090;-115.352;2023-06-04T02:43:12;23.30;39.33
76751;SHT31;65216;51.090;-115.352;2023-06-04T02:45:39;23.29;39.29
76751;SHT31;65216;51.090;-115.352;2023-06-04T02:48:06;23.26;39.21
76751;SHT31;65216;51.090;-115.352;2023-06-04T02:50:34;23.24;39.22
76751;SHT31;65216;51.090;-115.352;2023-06-04T02:53:04;23.21;39.20
76751;SHT31;65216;51.090;-115.352;2023-06-04T02:55:31;23.17;39.24
76751;SHT31;65216;51.090;-115.352;2023-06-04T02:57:59;23.17;39.26
76751;SHT31;65216;51.090;-115.352;2023-06-04T03:00:26;23.17;39.14
76751;SHT31;65216;51.090;-115.352;2023-06-04T03:02:53;23.14;39.09
76751;SHT31;65216;51.090;-115.352;2023-06-04T03:05:26;23.11;39.09
76751;SHT31;65216;51.090;-115.352;2023-06-04T03:07:56;23.08;39.15
76751;SHT31;65216;51.090;-115.352;2023-06-04T03:10:24;23.05;39.20
76751;SHT31;65216;51.090;-115.352;2023-06-04T03:12:51;23.03;39.15
76751;SHT31;65216;51.090;-115.352;2023-06-04T03:15:18;23.01;39.04
76751;SHT31;65216;51.090;-115.352;2023-06-04T03:17:47;22.98;39.06
76751;SHT31;65216;51.090;-115.352;2023-06-04T03:20:17;22.96;39.05
76751;SHT31;65216;51.090;-115.352;2023-06-04T03:22:44;22.93;39.10
76751;SHT31;65216;51.090;-115.352;2023-06-04T03:25:11;22.91;39.07
76751;SHT31;65216;51.090;-115.352;2023-06-04T03:27:38;22.89;39.10
76751;SHT31;65216;51.090;-115.352;2023-06-04T03:30:06;22.87;39.09
76751;SHT31;65216;51.090;-115.352;2023-06-04T03:32:34;22.86;39.10
76751;SHT31;65216;51.090;-115.352;2023-06-04T03:35:01;22.84;39.09
76751;SHT31;65216;51.090;-115.352;2023-06-04T03:37:28;22.83;39.10
76751;SHT31;65216;51.090;-115.352;2023-06-04T03:39:58;22.82;39.11
76751;SHT31;65216;51.090;-115.352;2023-06-04T03:42:31;22.81;39.11
76751;SHT31;65216;51.090;-115.352;2023-06-04T03:44:58;22.78;39.10
76751;SHT31;65216;51.090;-115.352;2023-06-04T03:47:25;22.77;39.08
76751;SHT31;65216;51.090;-115.352;2023-06-04T03:49:52;22.76;39.09
76751;SHT31;65216;51.090;-115.352;2023-06-04T03:52:19;22.74;39.07
76751;SHT31;65216;51.090;-115.352;2023-06-04T03:54:46;22.74;39.05
76751;SHT31;65216;51.090;-115.352;2023-06-04T03:57:13;22.76;39.00
76751;SHT31;65216;51.090;-115.352;2023-06-04T03:59:40;22.75;38.95
76751;SHT31;65216;51.090;-115.352;2023-06-04T04:02:07;22.74;38.90
76751;SHT31;65216;51.090;-115.352;2023-06-04T04:04:37;22.74;38.87
76751;SHT31;65216;51.090;-115.352;2023-06-04T04:07:06;22.72;38.83
76751;SHT31;65216;51.090;-115.352;2023-06-04T04:09:33;22.73;38.80
76751;SHT31;65216;51.090;-115.352;2023-06-04T04:12:01;22.73;38.78
76751;SHT31;65216;51.090;-115.352;2023-06-04T04:14:33;22.71;38.72
76751;SHT31;65216;51.090;-115.352;2023-06-04T04:17:00;22.66;38.79
76751;SHT31;65216;51.090;-115.352;2023-06-04T04:19:27;22.64;38.80
76751;SHT31;65216;51.090;-115.352;2023-06-04T04:21:54;22.62;38.80
76751;SHT31;65216;51.090;-115.352;2023-06-04T04:24:25;22.62;38.85
76751;SHT31;65216;51.090;-115.352;2023-06-04T04:26:55;22.60;38.86
76751;SHT31;65216;51.090;-115.352;2023-06-04T04:29:25;22.58;38.90
76751;SHT31;65216;51.090;-115.352;2023-06-04T04:31:53;22.57;38.89
76751;SHT31;65216;51.090;-115.352;2023-06-04T04:34:26;22.57;38.79
76751;SHT31;65216;51.090;-115.352;2023-06-04T04:36:57;22.56;38.68
76751;SHT31;65216;51.090;-115.352;2023-06-04T04:39:24;22.56;38.52
76751;SHT31;65216;51.090;-115.352;2023-06-04T04:41:54;22.56;38.43
76751;SHT31;65216;51.090;-115.352;2023-06-04T04:44:21;22.54;38.38
76751;SHT31;65216;51.090;-115.352;2023-06-04T04:46:48;22.51;38.31
76751;SHT31;65216;51.090;-115.352;2023-06-04T04:49:15;22.50;38.21
76751;SHT31;65216;51.090;-115.352;2023-06-04T04:51:42;22.51;38.17
76751;SHT31;65216;51.090;-115.352;2023-06-04T04:54:09;22.50;38.07
76751;SHT31;65216;51.090;-115.352;2023-06-04T04:56:36;22.50;37.99
76751;SHT31;65216;51.090;-115.352;2023-06-04T04:59:05;22.48;37.98
76751;SHT31;65216;51.090;-115.352;2023-06-04T05:01:35;22.45;37.91
76751;SHT31;65216;51.090;-115.352;2023-06-04T05:04:02;22.45;37.92
76751;SHT31;65216;51.090;-115.352;2023-06-04T05:06:29;22.44;37.91
76751;SHT31;65216;51.090;-115.352;2023-06-04T05:08:56;22.43;37.88
76751;SHT31;65216;51.090;-115.352;2023-06-04T05:11:23;22.43;37.82
76751;SHT31;65216;51.090;-115.352;2023-06-04T05:13:51;22.41;37.84
76751;SHT31;65216;51.090;-115.352;2023-06-04T05:16:18;22.40;37.82
76751;SHT31;65216;51.090;-115.352;2023-06-04T05:18:46;22.40;37.80
76751;SHT31;65216;51.090;-115.352;2023-06-04T05:21:12;22.41;37.79
76751;SHT31;65216;51.090;-115.352;2023-06-04T05:23:40;22.40;37.76
76751;SHT31;65216;51.090;-115.352;2023-06-04T05:26:07;22.41;37.72
76751;SHT31;65216;51.090;-115.352;2023-06-04T05:28:37;22.40;37.74
76751;SHT31;65216;51.090;-115.352;2023-06-04T05:31:09;22.39;37.75
76751;SHT31;65216;51.090;-115.352;2023-06-04T05:33:38;22.39;37.91
76751;SHT31;65216;51.090;-115.352;2023-06-04T05:36:05;22.39;37.94
76751;SHT31;65216;51.090;-115.352;2023-06-04T05:38:32;22.40;38.07
76751;SHT31;65216;51.090;-115.352;2023-06-04T05:41:03;22.38;38.29
76751;SHT31;65216;51.090;-115.352;2023-06-04T05:43:33;22.37;38.25
76751;SHT31;65216;51.090;-115.352;2023-06-04T05:46:00;22.35;38.26
76751;SHT31;65216;51.090;-115.352;2023-06-04T05:48:26;22.34;38.34
76751;SHT31;65216;51.090;-115.352;2023-06-04T05:50:53;22.32;38.44
76751;SHT31;65216;51.090;-115.352;2023-06-04T05:53:23;22.31;38.37
76751;SHT31;65216;51.090;-115.352;2023-06-04T05:55:50;22.30;38.24
76751;SHT31;65216;51.090;-115.352;2023-06-04T05:58:17;22.28;38.20
76751;SHT31;65216;51.090;-115.352;2023-06-04T06:00:44;22.28;38.20
76751;SHT31;65216;51.090;-115.352;2023-06-04T06:03:11;22.27;38.70
76751;SHT31;65216;51.090;-115.352;2023-06-04T06:05:42;22.25;38.60
76751;SHT31;65216;51.090;-115.352;2023-06-04T06:08:09;22.23;38.34
76751;SHT31;65216;51.090;-115.352;2023-06-04T06:10:40;22.21;38.24
76751;SHT31;65216;51.090;-115.352;2023-06-04T06:13:07;22.21;38.07
76751;SHT31;65216;51.090;-115.352;2023-06-04T06:15:37;22.19;38.07
76751;SHT31;65216;51.090;-115.352;2023-06-04T06:18:04;22.17;37.93
76751;SHT31;65216;51.090;-115.352;2023-06-04T06:20:31;22.15;37.87
76751;SHT31;65216;51.090;-115.352;2023-06-04T06:23:05;22.13;37.80
76751;SHT31;65216;51.090;-115.352;2023-06-04T06:25:33;22.11;37.68
76751;SHT31;65216;51.090;-115.352;2023-06-04T06:28:00;22.08;37.69
76751;SHT31;65216;51.090;-115.352;2023-06-04T06:30:27;22.06;37.68
76751;SHT31;65216;51.090;-115.352;2023-06-04T06:32:53;22.03;37.62
76751;SHT31;65216;51.090;-115.352;2023-06-04T06:35:21;22.01;37.61
76751;SHT31;65216;51.090;-115.352;2023-06-04T06:37:50;22.00;37.60
76751;SHT31;65216;51.090;-115.352;2023-06-04T06:40:17;21.99;37.57
76751;SHT31;65216;51.090;-115.352;2023-06-04T06:42:49;21.97;37.55
76751;SHT31;65216;51.090;-115.352;2023-06-04T06:45:17;21.96;37.55
76751;SHT31;65216;51.090;-115.352;2023-06-04T06:47:45;21.94;37.57
76751;SHT31;65216;51.090;-115.352;2023-06-04T06:50:14;21.94;37.52
76751;SHT31;65216;51.090;-115.352;2023-06-04T06:52:41;21.92;37.56
76751;SHT31;65216;51.090;-115.352;2023-06-04T06:55:11;21.91;37.59
76751;SHT31;65216;51.090;-115.352;2023-06-04T06:57:38;21.89;37.60
76751;SHT31;65216;51.090;-115.352;2023-06-04T07:00:05;21.87;37.63
76751;SHT31;65216;51.090;-115.352;2023-06-04T07:02:33;21.86;37.70
76751;SHT31;65216;51.090;-115.352;2023-06-04T07:05:00;21.84;37.73
76751;SHT31;65216;51.090;-115.352;2023-06-04T07:07:27;21.83;37.79
76751;SHT31;65216;51.090;-115.352;2023-06-04T07:09:54;21.81;37.89
76751;SHT31;65216;51.090;-115.352;2023-06-04T07:12:21;21.80;37.90
76751;SHT31;65216;51.090;-115.352;2023-06-04T07:14:51;21.78;37.96
76751;SHT31;65216;51.090;-115.352;2023-06-04T07:17:18;21.77;38.01
76751;SHT31;65216;51.090;-115.352;2023-06-04T07:19:47;21.76;38.06
76751;SHT31;65216;51.090;-115.352;2023-06-04T07:22:14;21.74;38.12
76751;SHT31;65216;51.090;-115.352;2023-06-04T07:24:43;21.72;38.16
76751;SHT31;65216;51.090;-115.352;2023-06-04T07:27:13;21.72;38.19
76751;SHT31;65216;51.090;-115.352;2023-06-04T07:29:42;21.72;38.19
76751;SHT31;65216;51.090;-115.352;2023-06-04T07:32:10;21.71;38.16
76751;SHT31;65216;51.090;-115.352;2023-06-04T07:34:38;21.68;38.14
76751;SHT31;65216;51.090;-115.352;2023-06-04T07:37:05;21.68;38.12
76751;SHT31;65216;51.090;-115.352;2023-06-04T07:39:33;21.68;38.10
76751;SHT31;65216;51.090;-115.352;2023-06-04T07:42:00;21.66;38.11
76751;SHT31;65216;51.090;-115.352;2023-06-04T07:44:27;21.66;38.15
76751;SHT31;65216;51.090;-115.352;2023-06-04T07:46:54;21.64;38.22
76751;SHT31;65216;51.090;-115.352;2023-06-04T07:49:21;21.64;38.29
76751;SHT31;65216;51.090;-115.352;2023-06-04T07:51:48;21.63;38.34
76751;SHT31;65216;51.090;-115.352;2023-06-04T07:54:15;21.61;38.40
76751;SHT31;65216;51.090;-115.352;2023-06-04T07:56:42;21.60;38.49
76751;SHT31;65216;51.090;-115.352;2023-06-04T07:59:09;21.59;38.50
76751;SHT31;65216;51.090;-115.352;2023-06-04T08:01:36;21.58;38.58
76751;SHT31;65216;51.090;-115.352;2023-06-04T08:04:03;21.58;38.60
76751;SHT31;65216;51.090;-115.352;2023-06-04T08:06:30;21.57;38.60
76751;SHT31;65216;51.090;-115.352;2023-06-04T08:08:59;21.57;38.60
76751;SHT31;65216;51.090;-115.352;2023-06-04T08:11:26;21.58;38.60
76751;SHT31;65216;51.090;-115.352;2023-06-04T08:13:53;21.58;38.60
76751;SHT31;65216;51.090;-115.352;2023-06-04T08:16:22;21.60;38.60
76751;SHT31;65216;51.090;-115.352;2023-06-04T08:18:52;21.60;38.59
76751;SHT31;65216;51.090;-115.352;2023-06-04T08:21:26;21.61;38.58
76751;SHT31;65216;51.090;-115.352;2023-06-04T08:23:54;21.62;38.57
76751;SHT31;65216;51.090;-115.352;2023-06-04T08:26:22;21.62;38.53
76751;SHT31;65216;51.090;-115.352;2023-06-04T08:28:49;21.62;38.52
76751;SHT31;65216;51.090;-115.352;2023-06-04T08:31:17;21.63;38.52
76751;SHT31;65216;51.090;-115.352;2023-06-04T08:33:47;21.62;38.52
76751;SHT31;65216;51.090;-115.352;2023-06-04T08:36:15;21.62;38.51
76751;SHT31;65216;51.090;-115.352;2023-06-04T08:38:41;21.61;38.49
76751;SHT31;65216;51.090;-115.352;2023-06-04T08:43:48;21.61;38.44
76751;SHT31;65216;51.090;-115.352;2023-06-04T08:46:18;21.61;38.42
76751;SHT31;65216;51.090;-115.352;2023-06-04T08:48:49;21.60;38.45
76751;SHT31;65216;51.090;-115.352;2023-06-04T08:51:17;21.59;38.40
76751;SHT31;65216;51.090;-115.352;2023-06-04T08:53:44;21.60;38.41
76751;SHT31;65216;51.090;-115.352;2023-06-04T08:56:15;21.58;38.40
76751;SHT31;65216;51.090;-115.352;2023-06-04T08:58:45;21.57;38.40
76751;SHT31;65216;51.090;-115.352;2023-06-04T09:01:14;21.57;38.36
76751;SHT31;65216;51.090;-115.352;2023-06-04T09:03:43;21.58;38.33
76751;SHT31;65216;51.090;-115.352;2023-06-04T09:06:11;21.57;38.30
76751;SHT31;65216;51.090;-115.352;2023-06-04T09:08:41;21.58;38.30
76751;SHT31;65216;51.090;-115.352;2023-06-04T09:11:11;21.58;38.30
76751;SHT31;65216;51.090;-115.352;2023-06-04T09:13:41;21.57;38.27
76751;SHT31;65216;51.090;-115.352;2023-06-04T09:16:13;21.58;38.28
76751;SHT31;65216;51.090;-115.352;2023-06-04T09:18:40;21.57;38.24
76751;SHT31;65216;51.090;-115.352;2023-06-04T09:21:09;21.56;38.27
76751;SHT31;65216;51.090;-115.352;2023-06-04T09:23:45;21.55;38.26
76751;SHT31;65216;51.090;-115.352;2023-06-04T09:26:13;21.54;38.23
76751;SHT31;65216;51.090;-115.352;2023-06-04T09:28:41;21.55;38.24
76751;SHT31;65216;51.090;-115.352;2023-06-04T09:31:16;21.54;38.21
76751;SHT31;65216;51.090;-115.352;2023-06-04T09:36:11;21.53;38.21
76751;SHT31;65216;51.090;-115.352;2023-06-04T09:38:42;21.52;38.21
76751;SHT31;65216;51.090;-115.352;2023-06-04T09:41:13;21.51;38.21
76751;SHT31;65216;51.090;-115.352;2023-06-04T09:43:45;21.51;38.19
76751;SHT31;65216;51.090;-115.352;2023-06-04T09:46:13;21.50;38.20
76751;SHT31;65216;51.090;-115.352;2023-06-04T09:48:48;21.52;38.20
76751;SHT31;65216;51.090;-115.352;2023-06-04T09:51:29;21.50;38.19
76751;SHT31;65216;51.090;-115.352;2023-06-04T09:53:58;21.49;38.23
76751;SHT31;65216;51.090;-115.352;2023-06-04T09:56:28;21.48;38.24
76751;SHT31;65216;51.090;-115.352;2023-06-04T09:59:04;21.46;38.24
76751;SHT31;65216;51.090;-115.352;2023-06-04T10:01:32;21.45;38.26
76751;SHT31;65216;51.090;-115.352;2023-06-04T10:04:04;21.44;38.26
76751;SHT31;65216;51.090;-115.352;2023-06-04T10:06:37;21.42;38.28
76751;SHT31;65216;51.090;-115.352;2023-06-04T10:09:06;21.40;38.30
76751;SHT31;65216;51.090;-115.352;2023-06-04T10:11:35;21.39;38.30
76751;SHT31;65216;51.090;-115.352;2023-06-04T10:16:51;21.37;38.37
76751;SHT31;65216;51.090;-115.352;2023-06-04T10:19:19;21.32;38.40
76751;SHT31;65216;51.090;-115.352;2023-06-04T10:21:46;21.30;38.40
76751;SHT31;65216;51.090;-115.352;2023-06-04T10:24:16;21.30;38.42
76751;SHT31;65216;51.090;-115.352;2023-06-04T10:26:45;21.28;38.44
76751;SHT31;65216;51.090;-115.352;2023-06-04T10:29:14;21.27;38.46
76751;SHT31;65216;51.090;-115.352;2023-06-04T10:31:42;21.25;38.47
76751;SHT31;65216;51.090;-115.352;2023-06-04T10:34:10;21.24;38.49
76751;SHT31;65216;51.090;-115.352;2023-06-04T10:36:45;21.24;38.49
76751;SHT31;65216;51.090;-115.352;2023-06-04T10:39:13;21.24;38.50
76751;SHT31;65216;51.090;-115.352;2023-06-04T10:44:42;21.20;38.50
76751;SHT31;65216;51.090;-115.352;2023-06-04T10:47:32;21.19;38.50
76751;SHT31;65216;51.090;-115.352;2023-06-04T10:50:09;21.17;38.49
76751;SHT31;65216;51.090;-115.352;2023-06-04T10:52:38;21.17;38.50
76751;SHT31;65216;51.090;-115.352;2023-06-04T10:55:21;21.16;38.49
76751;SHT31;65216;51.090;-115.352;2023-06-04T11:00:40;21.17;38.49
76751;SHT31;65216;51.090;-115.352;2023-06-04T11:03:15;21.17;38.49
76751;SHT31;65216;51.090;-115.352;2023-06-04T11:05:45;21.15;38.50
76751;SHT31;65216;51.090;-115.352;2023-06-04T11:08:25;21.14;38.49
76751;SHT31;65216;51.090;-115.352;2023-06-04T11:10:54;21.13;38.47
76751;SHT31;65216;51.090;-115.352;2023-06-04T11:13:24;21.13;38.43
76751;SHT31;65216;51.090;-115.352;2023-06-04T11:15:51;21.13;38.42
76751;SHT31;65216;51.090;-115.352;2023-06-04T11:18:20;21.11;38.39
76751;SHT31;65216;51.090;-115.352;2023-06-04T11:20:50;21.12;38.40
76751;SHT31;65216;51.090;-115.352;2023-06-04T11:23:27;21.12;38.35
76751;SHT31;65216;51.090;-115.352;2023-06-04T11:25:57;21.12;38.32
76751;SHT31;65216;51.090;-115.352;2023-06-04T11:28:24;21.12;38.30
76751;SHT31;65216;51.090;-115.352;2023-06-04T11:33:40;21.13;38.30
76751;SHT31;65216;51.090;-115.352;2023-06-04T11:36:25;21.13;38.25
76751;SHT31;65216;51.090;-115.352;2023-06-04T11:41:32;21.13;38.20
76751;SHT31;65216;51.090;-115.352;2023-06-04T11:44:05;21.13;38.19
76751;SHT31;65216;51.090;-115.352;2023-06-04T11:46:32;21.14;38.16
76751;SHT31;65216;51.090;-115.352;2023-06-04T11:49:01;21.15;38.12
76751;SHT31;65216;51.090;-115.352;2023-06-04T11:51:29;21.14;38.11
76751;SHT31;65216;51.090;-115.352;2023-06-04T11:53:57;21.15;38.10
76751;SHT31;65216;51.090;-115.352;2023-06-04T11:56:25;21.16;38.07
76751;SHT31;65216;51.090;-115.352;2023-06-04T11:58:53;21.16;38.07
76751;SHT31;65216;51.090;-115.352;2023-06-04T12:01:21;21.15;38.00
76751;SHT31;65216;51.090;-115.352;2023-06-04T12:03:48;21.15;38.00
76751;SHT31;65216;51.090;-115.352;2023-06-04T12:06:16;21.16;37.99
76751;SHT31;65216;51.090;-115.352;2023-06-04T12:08:49;21.16;37.97
76751;SHT31;65216;51.090;-115.352;2023-06-04T12:13:59;21.15;37.94
76751;SHT31;65216;51.090;-115.352;2023-06-04T12:16:35;21.16;37.94
76751;SHT31;65216;51.090;-115.352;2023-06-04T12:19:08;21.15;37.90
76751;SHT31;65216;51.090;-115.352;2023-06-04T12:21:39;21.16;37.91
76751;SHT31;65216;51.090;-115.352;2023-06-04T12:24:13;21.16;37.90
76751;SHT31;65216;51.090;-115.352;2023-06-04T12:26:43;21.16;37.90
76751;SHT31;65216;51.090;-115.352;2023-06-04T12:29:11;21.15;37.87
76751;SHT31;65216;51.090;-115.352;2023-06-04T12:31:41;21.16;37.88
76751;SHT31;65216;51.090;-115.352;2023-06-04T12:34:11;21.16;37.87
76751;SHT31;65216;51.090;-115.352;2023-06-04T12:36:43;21.15;37.89
76751;SHT31;65216;51.090;-115.352;2023-06-04T12:39:09;21.15;37.88
76751;SHT31;65216;51.090;-115.352;2023-06-04T12:41:36;21.15;37.86
76751;SHT31;65216;51.090;-115.352;2023-06-04T12:44:03;21.15;37.89
76751;SHT31;65216;51.090;-115.352;2023-06-04T12:46:33;21.15;37.89
76751;SHT31;65216;51.090;-115.352;2023-06-04T12:48:59;21.16;37.88
76751;SHT31;65216;51.090;-115.352;2023-06-04T12:51:26;21.16;37.88
76751;SHT31;65216;51.090;-115.352;2023-06-04T12:53:53;21.17;37.85
76751;SHT31;65216;51.090;-115.352;2023-06-04T12:56:20;21.18;37.81
76751;SHT31;65216;51.090;-115.352;2023-06-04T12:58:47;21.19;37.80
76751;SHT31;65216;51.090;-115.352;2023-06-04T13:01:14;21.22;37.80
76751;SHT31;65216;51.090;-115.352;2023-06-04T13:03:41;21.23;37.73
76751;SHT31;65216;51.090;-115.352;2023-06-04T13:06:09;21.24;37.70
76751;SHT31;65216;51.090;-115.352;2023-06-04T13:08:36;21.25;37.70
76751;SHT31;65216;51.090;-115.352;2023-06-04T13:11:03;21.26;37.67
76751;SHT31;65216;51.090;-115.352;2023-06-04T13:13:31;21.27;37.62
76751;SHT31;65216;51.090;-115.352;2023-06-04T13:15:57;21.27;37.66
76751;SHT31;65216;51.090;-115.352;2023-06-04T13:18:25;21.27;37.62
76751;SHT31;65216;51.090;-115.352;2023-06-04T13:20:52;21.29;37.63
76751;SHT31;65216;51.090;-115.352;2023-06-04T13:23:19;21.30;37.60
76751;SHT31;65216;51.090;-115.352;2023-06-04T13:25:49;21.31;37.61
76751;SHT31;65216;51.090;-115.352;2023-06-04T13:28:16;21.31;37.61
76751;SHT31;65216;51.090;-115.352;2023-06-04T13:30:43;21.31;37.63
76751;SHT31;65216;51.090;-115.352;2023-06-04T13:33:10;21.31;37.62
76751;SHT31;65216;51.090;-115.352;2023-06-04T13:35:38;21.31;37.64
76751;SHT31;65216;51.090;-115.352;2023-06-04T13:38:05;21.33;37.63
76751;SHT31;65216;51.090;-115.352;2023-06-04T13:40:35;21.33;37.61
76751;SHT31;65216;51.090;-115.352;2023-06-04T13:43:05;21.33;37.63
76751;SHT31;65216;51.090;-115.352;2023-06-04T13:45:34;21.33;37.68
76751;SHT31;65216;51.090;-115.352;2023-06-04T13:48:01;21.33;37.68
76751;SHT31;65216;51.090;-115.352;2023-06-04T13:50:32;21.34;37.69
76751;SHT31;65216;51.090;-115.352;2023-06-04T13:53:00;21.34;37.70
76751;SHT31;65216;51.090;-115.352;2023-06-04T13:55:33;21.35;37.70
76751;SHT31;65216;51.090;-115.352;2023-06-04T13:58:00;21.34;37.72
76751;SHT31;65216;51.090;-115.352;2023-06-04T14:00:27;21.35;37.73
76751;SHT31;65216;51.090;-115.352;2023-06-04T14:02:57;21.35;37.76
76751;SHT31;65216;51.090;-115.352;2023-06-04T14:05:24;21.36;37.78
76751;SHT31;65216;51.090;-115.352;2023-06-04T14:07:55;21.37;37.79
76751;SHT31;65216;51.090;-115.352;2023-06-04T14:10:23;21.37;37.78
76751;SHT31;65216;51.090;-115.352;2023-06-04T14:12:52;21.38;37.81
76751;SHT31;65216;51.090;-115.352;2023-06-04T14:15:20;21.37;37.88
76751;SHT31;65216;51.090;-115.352;2023-06-04T14:17:48;21.39;37.88
76751;SHT31;65216;51.090;-115.352;2023-06-04T14:20:17;21.40;37.89
76751;SHT31;65216;51.090;-115.352;2023-06-04T14:22:46;21.40;37.92
76751;SHT31;65216;51.090;-115.352;2023-06-04T14:25:13;21.40;37.99
76751;SHT31;65216;51.090;-115.352;2023-06-04T14:27:40;21.40;38.01
76751;SHT31;65216;51.090;-115.352;2023-06-04T14:30:09;21.41;38.05
76751;SHT31;65216;51.090;-115.352;2023-06-04T14:32:37;21.42;38.05
76751;SHT31;65216;51.090;-115.352;2023-06-04T14:35:05;21.44;38.11
76751;SHT31;65216;51.090;-115.352;2023-06-04T14:37:33;21.44;38.11
76751;SHT31;65216;51.090;-115.352;2023-06-04T14:40:00;21.45;38.20
76751;SHT31;65216;51.090;-115.352;2023-06-04T14:42:27;21.47;38.25
76751;SHT31;65216;51.090;-115.352;2023-06-04T14:44:57;21.47;38.36
76751;SHT31;65216;51.090;-115.352;2023-06-04T14:47:24;21.47;38.45
76751;SHT31;65216;51.090;-115.352;2023-06-04T14:49:53;21.47;38.53
76751;SHT31;65216;51.090;-115.352;2023-06-04T14:52:20;21.50;38.61
76751;SHT31;65216;51.090;-115.352;2023-06-04T14:54:47;21.50;38.70
76751;SHT31;65216;51.090;-115.352;2023-06-04T14:57:15;21.51;38.76
76751;SHT31;65216;51.090;-115.352;2023-06-04T14:59:44;21.51;38.88
76751;SHT31;65216;51.090;-115.352;2023-06-04T15:02:13;21.51;38.99
76751;SHT31;65216;51.090;-115.352;2023-06-04T15:04:45;21.51;39.08
76751;SHT31;65216;51.090;-115.352;2023-06-04T15:07:15;21.52;39.13
76751;SHT31;65216;51.090;-115.352;2023-06-04T15:09:44;21.54;39.21
76751;SHT31;65216;51.090;-115.352;2023-06-04T15:12:13;21.54;39.29
76751;SHT31;65216;51.090;-115.352;2023-06-04T15:14:43;21.54;39.39
76751;SHT31;65216;51.090;-115.352;2023-06-04T15:17:10;21.55;39.51
76751;SHT31;65216;51.090;-115.352;2023-06-04T15:19:37;21.55;39.59
76751;SHT31;65216;51.090;-115.352;2023-06-04T15:22:07;21.56;39.68
76751;SHT31;65216;51.090;-115.352;2023-06-04T15:24:34;21.56;39.81